sensor_id;sensor_type;location;lat;lon;timestamp;pressure;altitude;pressure_sealevel;temperature;humidity
6938;BME280;40040;42.706;23.372;2023-04-26T00:02:26;146602.03;;;9.85;100.00
6938;BME280;40040;42.706;23.372;2023-04-26T00:04:55;146572.41;;;9.73;100.00
6938;BME280;40040;42.706;23.372;2023-04-26T00:07:23;146547.75;;;9.63;100.00
6938;BME280;40040;42.706;23.372;2023-04-26T00:09:50;146530.50;;;9.56;100.00
6938;BME280;40040;42.706;23.372;2023-04-26T00:12:18;146515.72;;;9.50;100.00
6938;BME280;40040;42.706;23.372;2023-04-26T00:14:44;146491.03;;;9.40;100.00
6938;BME280;40040;42.706;23.372;2023-04-26T00:17:11;146482.47;;;9.36;100.00
6938;BME280;40040;42.706;23.372;2023-04-26T00:19:38;146500.91;;;9.44;100.00
6938;BME280;40040;42.706;23.372;2023-04-26T00:22:06;146513.25;;;9.49;100.00
6938;BME280;40040;42.706;23.372;2023-04-26T00:24:34;146498.47;;;9.43;100.00
6938;BME280;40040;42.706;23.372;2023-04-26T00:27:01;146461.47;;;9.28;100.00
6938;BME280;40040;42.706;23.372;2023-04-26T00:29:33;146419.56;;;9.10;100.00
6938;BME280;40040;42.706;23.372;2023-04-26T00:32:00;146409.75;;;9.06;100.00
6938;BME280;40040;42.706;23.372;2023-04-26T00:34:31;146394.94;;;9.00;100.00
6938;BME280;40040;42.706;23.372;2023-04-26T00:36:58;146340.75;;;8.78;100.00
6938;BME280;40040;42.706;23.372;2023-04-26T00:39:26;146390.00;;;8.98;100.00
6938;BME280;40040;42.706;23.372;2023-04-26T00:41:52;146377.69;;;8.93;100.00
6938;BME280;40040;42.706;23.372;2023-04-26T00:44:19;146367.81;;;8.89;100.00
6938;BME280;40040;42.706;23.372;2023-04-26T00:46:47;146361.69;;;8.87;100.00
6938;BME280;40040;42.706;23.372;2023-04-26T00:49:16;146306.25;;;8.64;100.00
6938;BME280;40040;42.706;23.372;2023-04-26T00:51:43;146365.38;;;8.88;100.00
6938;BME280;40040;42.706;23.372;2023-04-26T00:54:11;146355.50;;;8.84;100.00
6938;BME280;40040;42.706;23.372;2023-04-26T00:56:40;146374.00;;;8.92;100.00
6938;BME280;40040;42.706;23.372;2023-04-26T00:59:07;146341.94;;;8.79;100.00
6938;BME280;40040;42.706;23.372;2023-04-26T01:01:34;146335.81;;;8.76;100.00
6938;BME280;40040;42.706;23.372;2023-04-26T01:04:02;146286.50;;;8.56;100.00
6938;BME280;40040;42.706;23.372;2023-04-26T01:06:32;146360.44;;;8.86;100.00
6938;BME280;40040;42.706;23.372;2023-04-26T01:09:01;146330.88;;;8.74;100.00
6938;BME280;40040;42.706;23.372;2023-04-26T01:11:29;146338.25;;;8.77;100.00
6938;BME280;40040;42.706;23.372;2023-04-26T01:13:58;146316.06;;;8.68;100.00
6938;BME280;40040;42.706;23.372;2023-04-26T01:16:25;146311.19;;;8.66;100.00
6938;BME280;40040;42.706;23.372;2023-04-26T01:18:53;146276.69;;;8.52;100.00
6938;BME280;40040;42.706;23.372;2023-04-26T01:21:22;146276.69;;;8.52;100.00
6938;BME280;40040;42.706;23.372;2023-04-26T01:23:51;146277.88;;;8.53;100.00
6938;BME280;40040;42.706;23.372;2023-04-26T01:26:18;146275.44;;;8.52;100.00
6938;BME280;40040;42.706;23.372;2023-04-26T01:28:45;146256.94;;;8.44;100.00
6938;BME280;40040;42.706;23.372;2023-04-26T01:31:13;146243.41;;;8.39;100.00
6938;BME280;40040;42.706;23.372;2023-04-26T01:33:40;146232.34;;;8.34;100.00
6938;BME280;40040;42.706;23.372;2023-04-26T01:36:08;146220.03;;;8.29;100.00
6938;BME280;40040;42.706;23.372;2023-04-26T01:38:36;146261.88;;;8.46;100.00
6938;BME280;40040;42.706;23.372;2023-04-26T01:41:04;146271.75;;;8.50;100.00
6938;BME280;40040;42.706;23.372;2023-04-26T01:43:31;146284.06;;;8.55;100.00
6938;BME280;40040;42.706;23.372;2023-04-26T01:45:57;146250.81;;;8.42;100.00
6938;BME280;40040;42.706;23.372;2023-04-26T01:48:24;146191.63;;;8.18;100.00
6938;BME280;40040;42.706;23.372;2023-04-26T01:50:51;146272.94;;;8.51;100.00
6938;BME280;40040;42.706;23.372;2023-04-26T01:53:18;146274.19;;;8.51;100.00
6938;BME280;40040;42.706;23.372;2023-04-26T01:55:45;146282.81;;;8.55;100.00
6938;BME280;40040;42.706;23.372;2023-04-26T01:58:13;146297.63;;;8.61;100.00
6938;BME280;40040;42.706;23.372;2023-04-26T02:00:41;146300.06;;;8.62;100.00
6938;BME280;40040;42.706;23.372;2023-04-26T02:03:07;146296.38;;;8.60;100.00
6938;BME280;40040;42.706;23.372;2023-04-26T02:05:34;146296.38;;;8.60;100.00
6938;BME280;40040;42.706;23.372;2023-04-26T02:08:01;146301.31;;;8.62;100.00
6938;BME280;40040;42.706;23.372;2023-04-26T02:10:28;146282.81;;;8.55;100.00
6938;BME280;40040;42.706;23.372;2023-04-26T02:12:55;146265.56;;;8.48;100.00
6938;BME280;40040;42.706;23.372;2023-04-26T02:15:23;146275.44;;;8.52;100.00
6938;BME280;40040;42.706;23.372;2023-04-26T02:17:50;146247.13;;;8.40;100.00
6938;BME280;40040;42.706;23.372;2023-04-26T02:20:18;146212.66;;;8.26;100.00
6938;BME280;40040;42.706;23.372;2023-04-26T02:22:45;146220.03;;;8.29;100.00
6938;BME280;40040;42.706;23.372;2023-04-26T02:25:11;146218.78;;;8.29;100.00
6938;BME280;40040;42.706;23.372;2023-04-26T02:27:38;146208.91;;;8.25;100.00
6938;BME280;40040;42.706;23.372;2023-04-26T02:30:06;146151.00;;;8.01;100.00
6938;BME280;40040;42.706;23.372;2023-04-26T02:32:35;146187.94;;;8.16;100.00
6938;BME280;40040;42.706;23.372;2023-04-26T02:35:02;146136.22;;;7.95;100.00
6938;BME280;40040;42.706;23.372;2023-04-26T02:37:29;146158.38;;;8.04;100.00
6938;BME280;40040;42.706;23.372;2023-04-26T02:39:56;146143.63;;;7.98;100.00
6938;BME280;40040;42.706;23.372;2023-04-26T02:42:23;146131.34;;;7.93;100.00
6938;BME280;40040;42.706;23.372;2023-04-26T02:44:50;146111.59;;;7.85;100.00
6938;BME280;40040;42.706;23.372;2023-04-26T02:47:17;146160.88;;;8.05;100.00
6938;BME280;40040;42.706;23.372;2023-04-26T02:49:45;146148.56;;;8.00;100.00
6938;BME280;40040;42.706;23.372;2023-04-26T02:52:12;146199.03;;;8.21;100.00
6938;BME280;40040;42.706;23.372;2023-04-26T02:54:38;146212.66;;;8.26;100.00
6938;BME280;40040;42.706;23.372;2023-04-26T02:57:05;146221.25;;;8.30;100.00
6938;BME280;40040;42.706;23.372;2023-04-26T02:59:32;146226.16;;;8.32;100.00
6938;BME280;40040;42.706;23.372;2023-04-26T03:01:59;146247.13;;;8.40;100.00
6938;BME280;40040;42.706;23.372;2023-04-26T03:04:26;146239.72;;;8.37;100.00
6938;BME280;40040;42.706;23.372;2023-04-26T03:06:54;146220.03;;;8.29;100.00
6938;BME280;40040;42.706;23.372;2023-04-26T03:09:21;146207.72;;;8.24;100.00
6938;BME280;40040;42.706;23.372;2023-04-26T03:11:48;146228.66;;;8.33;100.00
6938;BME280;40040;42.706;23.372;2023-04-26T03:14:14;146176.88;;;8.12;100.00
6938;BME280;40040;42.706;23.372;2023-04-26T03:16:42;146217.53;;;8.28;100.00
6938;BME280;40040;42.706;23.372;2023-04-26T03:19:09;146194.13;;;8.19;100.00
6938;BME280;40040;42.706;23.372;2023-04-26T03:21:36;146206.47;;;8.24;100.00
6938;BME280;40040;42.706;23.372;2023-04-26T03:24:05;146227.41;;;8.32;100.00
6938;BME280;40040;42.706;23.372;2023-04-26T03:26:32;146249.56;;;8.41;100.00
6938;BME280;40040;42.706;23.372;2023-04-26T03:28:58;146268.06;;;8.49;100.00
6938;BME280;40040;42.706;23.372;2023-04-26T03:31:26;146269.25;;;8.49;100.00
6938;BME280;40040;42.706;23.372;2023-04-26T03:33:53;146245.88;;;8.40;100.00
6938;BME280;40040;42.706;23.372;2023-04-26T03:36:19;146252.03;;;8.42;100.00
6938;BME280;40040;42.706;23.372;2023-04-26T03:38:46;146245.88;;;8.40;100.00
6938;BME280;40040;42.706;23.372;2023-04-26T03:41:15;146250.81;;;8.42;100.00
6938;BME280;40040;42.706;23.372;2023-04-26T03:43:41;146270.50;;;8.50;100.00
6938;BME280;40040;42.706;23.372;2023-04-26T03:46:08;146280.38;;;8.54;100.00
6938;BME280;40040;42.706;23.372;2023-04-26T03:48:35;146263.13;;;8.47;100.00
6938;BME280;40040;42.706;23.372;2023-04-26T03:51:02;146270.50;;;8.50;100.00
6938;BME280;40040;42.706;23.372;2023-04-26T03:53:28;146289.00;;;8.57;100.00
6938;BME280;40040;42.706;23.372;2023-04-26T03:55:55;146309.94;;;8.66;100.00
6938;BME280;40040;42.706;23.372;2023-04-26T03:58:23;146335.81;;;8.76;100.00
6938;BME280;40040;42.706;23.372;2023-04-26T04:00:50;146344.44;;;8.80;100.00
6938;BME280;40040;42.706;23.372;2023-04-26T04:03:17;146367.81;;;8.89;100.00
6938;BME280;40040;42.706;23.372;2023-04-26T04:05:45;146381.38;;;8.95;100.00
6938;BME280;40040;42.706;23.372;2023-04-26T04:08:12;146392.50;;;8.99;100.00
6938;BME280;40040;42.706;23.372;2023-04-26T04:10:38;146402.31;;;9.03;100.00
6938;BME280;40040;42.706;23.372;2023-04-26T04:13:07;146367.81;;;8.89;100.00
6938;BME280;40040;42.706;23.372;2023-04-26T04:15:35;146364.13;;;8.88;100.00
6938;BME280;40040;42.706;23.372;2023-04-26T04:18:02;146348.13;;;8.81;100.00
6938;BME280;40040;42.706;23.372;2023-04-26T04:20:29;146335.81;;;8.76;100.00
6938;BME280;40040;42.706;23.372;2023-04-26T04:22:55;146321.00;;;8.70;100.00
6938;BME280;40040;42.706;23.372;2023-04-26T04:25:23;146362.88;;;8.87;100.00
6938;BME280;40040;42.706;23.372;2023-04-26T04:27:50;146365.38;;;8.88;100.00
6938;BME280;40040;42.706;23.372;2023-04-26T04:30:18;146375.25;;;8.92;100.00
6938;BME280;40040;42.706;23.372;2023-04-26T04:32:46;146401.13;;;9.03;100.00
6938;BME280;40040;42.706;23.372;2023-04-26T04:35:13;146424.50;;;9.13;100.00
6938;BME280;40040;42.706;23.372;2023-04-26T04:37:40;146451.63;;;9.24;100.00
6938;BME280;40040;42.706;23.372;2023-04-26T04:40:09;146461.47;;;9.28;100.00
6938;BME280;40040;42.706;23.372;2023-04-26T04:42:36;146486.16;;;9.38;100.00
6938;BME280;40040;42.706;23.372;2023-04-26T04:45:03;146503.41;;;9.45;100.00
6938;BME280;40040;42.706;23.372;2023-04-26T04:47:30;146533.00;;;9.57;100.00
6938;BME280;40040;42.706;23.372;2023-04-26T04:49:59;146525.56;;;9.54;100.00
6938;BME280;40040;42.706;23.372;2023-04-26T04:52:26;146535.44;;;9.58;100.00
6938;BME280;40040;42.706;23.372;2023-04-26T04:54:53;146530.50;;;9.56;100.00
6938;BME280;40040;42.706;23.372;2023-04-26T04:57:20;146549.00;;;9.63;100.00
6938;BME280;40040;42.706;23.372;2023-04-26T04:59:47;146557.63;;;9.67;100.00
6938;BME280;40040;42.706;23.372;2023-04-26T05:02:14;146619.31;;;9.92;100.00
6938;BME280;40040;42.706;23.372;2023-04-26T05:04:40;146639.00;;;10.00;100.00
6938;BME280;40040;42.706;23.372;2023-04-26T05:07:09;146661.28;;;10.09;100.00
6938;BME280;40040;42.706;23.372;2023-04-26T05:09:37;146684.69;;;10.18;100.00
6938;BME280;40040;42.706;23.372;2023-04-26T05:12:04;146698.25;;;10.24;100.00
6938;BME280;40040;42.706;23.372;2023-04-26T05:14:31;146608.19;;;9.87;100.00
6938;BME280;40040;42.706;23.372;2023-04-26T05:16:58;146708.13;;;10.28;100.00
6938;BME280;40040;42.706;23.372;2023-04-26T05:19:25;146697.00;;;10.23;100.00
6938;BME280;40040;42.706;23.372;2023-04-26T05:21:52;146693.31;;;10.22;100.00
6938;BME280;40040;42.706;23.372;2023-04-26T05:24:20;146699.50;;;10.25;100.00
6938;BME280;40040;42.706;23.372;2023-04-26T05:26:47;146719.22;;;10.33;100.00
6938;BME280;40040;42.706;23.372;2023-04-26T05:29:14;146705.66;;;10.27;100.00
6938;BME280;40040;42.706;23.372;2023-04-26T05:31:41;146710.59;;;10.29;100.00
6938;BME280;40040;42.706;23.372;2023-04-26T05:34:07;146732.78;;;10.38;100.00
6938;BME280;40040;42.706;23.372;2023-04-26T05:36:34;146721.72;;;10.34;100.00
6938;BME280;40040;42.706;23.372;2023-04-26T05:39:01;146709.38;;;10.29;100.00
6938;BME280;40040;42.706;23.372;2023-04-26T05:41:31;146721.72;;;10.34;100.00
6938;BME280;40040;42.706;23.372;2023-04-26T05:43:58;146747.63;;;10.44;100.00
6938;BME280;40040;42.706;23.372;2023-04-26T05:46:25;146767.34;;;10.52;100.00
6938;BME280;40040;42.706;23.372;2023-04-26T05:48:51;146792.00;;;10.62;100.00
6938;BME280;40040;42.706;23.372;2023-04-26T05:51:19;146811.78;;;10.70;100.00
6938;BME280;40040;42.706;23.372;2023-04-26T05:53:46;146793.25;;;10.63;100.00
6938;BME280;40040;42.706;23.372;2023-04-26T05:56:13;146821.63;;;10.74;100.00
6938;BME280;40040;42.706;23.372;2023-04-26T05:58:41;146841.38;;;10.82;100.00
6938;BME280;40040;42.706;23.372;2023-04-26T06:01:08;146768.59;;;10.53;100.00
6938;BME280;40040;42.706;23.372;2023-04-26T06:03:35;146848.78;;;10.85;100.00
6938;BME280;40040;42.706;23.372;2023-04-26T06:06:01;146848.78;;;10.85;100.00
6938;BME280;40040;42.706;23.372;2023-04-26T06:08:29;146827.81;;;10.77;100.00
6938;BME280;40040;42.706;23.372;2023-04-26T06:10:56;146847.53;;;10.85;100.00
6938;BME280;40040;42.706;23.372;2023-04-26T06:13:23;146888.28;;;11.01;100.00
6938;BME280;40040;42.706;23.372;2023-04-26T06:15:52;146893.22;;;11.03;100.00
6938;BME280;40040;42.706;23.372;2023-04-26T06:18:19;146917.91;;;11.13;100.00
6938;BME280;40040;42.706;23.372;2023-04-26T06:20:45;146947.50;;;11.25;100.00
6938;BME280;40040;42.706;23.372;2023-04-26T06:23:12;146956.16;;;11.29;100.00
6938;BME280;40040;42.706;23.372;2023-04-26T06:25:39;147024.06;;;11.57;100.00
6938;BME280;40040;42.706;23.372;2023-04-26T06:28:10;147058.69;;;11.71;100.00
6938;BME280;40040;42.706;23.372;2023-04-26T06:30:37;147077.22;;;11.78;100.00
6938;BME280;40040;42.706;23.372;2023-04-26T06:33:05;147114.25;;;11.93;100.00
6938;BME280;40040;42.706;23.372;2023-04-26T06:35:32;147151.28;;;12.08;100.00
6938;BME280;40040;42.706;23.372;2023-04-26T06:37:58;147177.22;;;12.19;100.00
6938;BME280;40040;42.706;23.372;2023-04-26T06:40:25;147231.63;;;12.41;100.00
6938;BME280;40040;42.706;23.372;2023-04-26T06:42:52;147261.25;;;12.53;100.00
6938;BME280;40040;42.706;23.372;2023-04-26T06:45:20;147431.84;;;13.22;100.00
6938;BME280;40040;42.706;23.372;2023-04-26T06:47:50;147483.78;;;13.43;100.00
6938;BME280;40040;42.706;23.372;2023-04-26T06:50:18;147501.09;;;13.50;100.00
6938;BME280;40040;42.706;23.372;2023-04-26T06:52:45;147519.66;;;13.58;100.00
6938;BME280;40040;42.706;23.372;2023-04-26T06:55:12;147496.16;;;13.48;100.00
6938;BME280;40040;42.706;23.372;2023-04-26T06:57:40;147507.25;;;13.53;100.00
6938;BME280;40040;42.706;23.372;2023-04-26T07:00:07;147518.41;;;13.57;100.00
6938;BME280;40040;42.706;23.372;2023-04-26T07:02:35;147535.72;;;13.65;100.00
6938;BME280;40040;42.706;23.372;2023-04-26T07:05:02;147562.91;;;13.76;100.00
6938;BME280;40040;42.706;23.372;2023-04-26T07:07:30;147565.41;;;13.77;100.00
6938;BME280;40040;42.706;23.372;2023-04-26T07:09:56;147621.06;;;13.99;100.00
6938;BME280;40040;42.706;23.372;2023-04-26T07:12:23;147629.72;;;14.03;100.00
6938;BME280;40040;42.706;23.372;2023-04-26T07:14:50;147554.25;;;13.72;100.00
6938;BME280;40040;42.706;23.372;2023-04-26T07:17:17;147541.88;;;13.67;100.00
6938;BME280;40040;42.706;23.372;2023-04-26T07:19:44;147572.81;;;13.80;100.00
6938;BME280;40040;42.706;23.372;2023-04-26T07:22:11;147600.03;;;13.91;100.00
6938;BME280;40040;42.706;23.372;2023-04-26T07:24:39;147644.53;;;14.09;100.00
6938;BME280;40040;42.706;23.372;2023-04-26T07:27:05;147570.38;;;13.79;100.00
6938;BME280;40040;42.706;23.372;2023-04-26T07:29:32;147548.09;;;13.70;100.00
6938;BME280;40040;42.706;23.372;2023-04-26T07:31:59;147504.81;;;13.52;100.00
6938;BME280;40040;42.706;23.372;2023-04-26T07:34:26;147528.28;;;13.62;100.00
6938;BME280;40040;42.706;23.372;2023-04-26T07:36:52;147473.88;;;13.39;100.00
6938;BME280;40040;42.706;23.372;2023-04-26T07:39:20;147478.84;;;13.41;100.00
6938;BME280;40040;42.706;23.372;2023-04-26T07:41:49;147493.69;;;13.47;100.00
6938;BME280;40040;42.706;23.372;2023-04-26T07:44:15;147580.22;;;13.83;100.00
6938;BME280;40040;42.706;23.372;2023-04-26T07:46:42;147539.44;;;13.66;100.00
6938;BME280;40040;42.706;23.372;2023-04-26T07:49:09;147451.63;;;13.30;100.00
6938;BME280;40040;42.706;23.372;2023-04-26T07:51:36;147444.22;;;13.27;100.00
6938;BME280;40040;42.706;23.372;2023-04-26T07:54:03;147455.31;;;13.32;100.00
6938;BME280;40040;42.706;23.372;2023-04-26T07:56:30;147527.06;;;13.61;100.00
6938;BME280;40040;42.706;23.372;2023-04-26T07:59:00;147614.88;;;13.97;100.00
6938;BME280;40040;42.706;23.372;2023-04-26T08:01:27;147659.41;;;14.15;100.00
6938;BME280;40040;42.706;23.372;2023-04-26T08:03:53;147691.59;;;14.28;100.00
6938;BME280;40040;42.706;23.372;2023-04-26T08:06:20;147753.50;;;14.53;100.00
6938;BME280;40040;42.706;23.372;2023-04-26T08:08:47;147744.81;;;14.49;100.00
6938;BME280;40040;42.706;23.372;2023-04-26T08:11:15;147780.75;;;14.64;100.00
6938;BME280;40040;42.706;23.372;2023-04-26T08:13:41;147790.59;;;14.68;98.20
6938;BME280;40040;42.706;23.372;2023-04-26T08:16:10;147864.88;;;14.98;97.24
6938;BME280;40040;42.706;23.372;2023-04-26T08:18:37;147863.63;;;14.98;93.94
6938;BME280;40040;42.706;23.372;2023-04-26T08:21:04;147785.69;;;14.66;92.22
6938;BME280;40040;42.706;23.372;2023-04-26T08:23:32;147874.78;;;15.02;94.12
6938;BME280;40040;42.706;23.372;2023-04-26T08:26:00;147914.44;;;15.18;92.14
6938;BME280;40040;42.706;23.372;2023-04-26T08:28:27;147931.75;;;15.25;90.21
6938;BME280;40040;42.706;23.372;2023-04-26T08:30:54;147999.91;;;15.53;90.03
6938;BME280;40040;42.706;23.372;2023-04-26T08:33:22;148045.72;;;15.71;88.46
6938;BME280;40040;42.706;23.372;2023-04-26T08:35:49;148133.69;;;16.07;89.23
6938;BME280;40040;42.706;23.372;2023-04-26T08:38:16;148195.59;;;16.32;87.53
6938;BME280;40040;42.706;23.372;2023-04-26T08:40:45;148251.41;;;16.55;85.49
6938;BME280;40040;42.706;23.372;2023-04-26T08:43:13;148291.09;;;16.71;82.83
6938;BME280;40040;42.706;23.372;2023-04-26T08:45:44;148248.97;;;16.54;86.71
6938;BME280;40040;42.706;23.372;2023-04-26T08:48:11;148301.03;;;16.75;85.28
6938;BME280;40040;42.706;23.372;2023-04-26T08:50:42;148138.59;;;16.09;82.15
6938;BME280;40040;42.706;23.372;2023-04-26T08:53:13;148177.06;;;16.25;82.55
6938;BME280;40040;42.706;23.372;2023-04-26T08:55:41;148276.19;;;16.65;82.50
6938;BME280;40040;42.706;23.372;2023-04-26T08:58:13;148283.66;;;16.68;84.98
6938;BME280;40040;42.706;23.372;2023-04-26T09:00:42;148332.03;;;16.88;83.31
6938;BME280;40040;42.706;23.372;2023-04-26T09:03:09;148374.16;;;17.05;83.33
6938;BME280;40040;42.706;23.372;2023-04-26T09:05:38;148361.78;;;17.00;82.12
6938;BME280;40040;42.706;23.372;2023-04-26T09:08:13;148379.13;;;17.07;80.95
6938;BME280;40040;42.706;23.372;2023-04-26T09:10:41;148304.72;;;16.76;82.19
6938;BME280;40040;42.706;23.372;2023-04-26T09:13:09;148160.91;;;16.18;84.09
6938;BME280;40040;42.706;23.372;2023-04-26T09:15:37;148121.31;;;16.02;84.31
6938;BME280;40040;42.706;23.372;2023-04-26T09:18:17;147998.66;;;15.52;85.15
6938;BME280;40040;42.706;23.372;2023-04-26T09:20:45;147941.63;;;15.29;85.82
6938;BME280;40040;42.706;23.372;2023-04-26T09:23:13;147900.78;;;15.13;87.66
6938;BME280;40040;42.706;23.372;2023-04-26T09:25:41;147968.94;;;15.40;86.76
6938;BME280;40040;42.706;23.372;2023-04-26T09:28:22;148002.38;;;15.54;86.25
6938;BME280;40040;42.706;23.372;2023-04-26T09:30:49;147951.56;;;15.33;84.66
6938;BME280;40040;42.706;23.372;2023-04-26T09:33:15;147942.88;;;15.30;85.39
6938;BME280;40040;42.706;23.372;2023-04-26T09:35:43;148006.06;;;15.55;83.61
6938;BME280;40040;42.706;23.372;2023-04-26T09:38:13;148043.25;;;15.70;81.99
6938;BME280;40040;42.706;23.372;2023-04-26T09:40:41;148058.09;;;15.76;83.11
6938;BME280;40040;42.706;23.372;2023-04-26T09:43:09;148071.72;;;15.82;81.22
6938;BME280;40040;42.706;23.372;2023-04-26T09:45:44;148107.66;;;15.97;78.45
6938;BME280;40040;42.706;23.372;2023-04-26T09:48:15;148040.75;;;15.69;80.65
6938;BME280;40040;42.706;23.372;2023-04-26T09:50:42;148160.91;;;16.18;78.35
6938;BME280;40040;42.706;23.372;2023-04-26T09:53:10;148172.09;;;16.23;79.98
6938;BME280;40040;42.706;23.372;2023-04-26T09:55:39;148152.25;;;16.15;78.43
6938;BME280;40040;42.706;23.372;2023-04-26T09:58:09;148209.25;;;16.38;78.90
6938;BME280;40040;42.706;23.372;2023-04-26T10:00:37;148115.09;;;16.00;78.13
6938;BME280;40040;42.706;23.372;2023-04-26T10:03:07;148138.59;;;16.09;78.59
6938;BME280;40040;42.706;23.372;2023-04-26T10:05:35;148148.53;;;16.13;78.66
6938;BME280;40040;42.706;23.372;2023-04-26T10:08:04;148151.03;;;16.14;77.58
6938;BME280;40040;42.706;23.372;2023-04-26T10:10:31;148134.88;;;16.08;78.01
6938;BME280;40040;42.706;23.372;2023-04-26T10:13:00;148206.78;;;16.37;75.22
6938;BME280;40040;42.706;23.372;2023-04-26T10:15:27;148246.47;;;16.53;74.42
6938;BME280;40040;42.706;23.372;2023-04-26T10:17:54;148271.28;;;16.63;75.64
6938;BME280;40040;42.706;23.372;2023-04-26T10:20:23;148310.91;;;16.79;73.73
6938;BME280;40040;42.706;23.372;2023-04-26T10:22:54;148323.34;;;16.84;74.11
6938;BME280;40040;42.706;23.372;2023-04-26T10:25:34;148278.69;;;16.66;74.73
6938;BME280;40040;42.706;23.372;2023-04-26T10:28:02;148191.91;;;16.31;74.89
6938;BME280;40040;42.706;23.372;2023-04-26T10:30:29;148203.03;;;16.35;73.51
6938;BME280;40040;42.706;23.372;2023-04-26T10:33:20;148204.28;;;16.36;72.09
6938;BME280;40040;42.706;23.372;2023-04-26T10:36:05;148152.25;;;16.15;71.41
6938;BME280;40040;42.706;23.372;2023-04-26T10:38:33;148087.81;;;15.89;71.07
6938;BME280;40040;42.706;23.372;2023-04-26T10:41:35;148128.72;;;16.05;73.39
6938;BME280;40040;42.706;23.372;2023-04-26T10:47:33;148149.78;;;16.14;71.00
6938;BME280;40040;42.706;23.372;2023-04-26T10:50:03;148113.84;;;15.99;70.17
6938;BME280;40040;42.706;23.372;2023-04-26T10:52:31;148095.28;;;15.92;68.99
6938;BME280;40040;42.706;23.372;2023-04-26T10:54:58;148100.19;;;15.94;69.66
6938;BME280;40040;42.706;23.372;2023-04-26T10:57:50;148120.06;;;16.02;70.46
6938;BME280;40040;42.706;23.372;2023-04-26T11:00:28;148137.41;;;16.09;69.43
6938;BME280;40040;42.706;23.372;2023-04-26T11:03:00;148148.53;;;16.13;68.12
6938;BME280;40040;42.706;23.372;2023-04-26T11:06:04;148112.63;;;15.99;67.49
6938;BME280;40040;42.706;23.372;2023-04-26T11:08:31;148152.25;;;16.15;69.02
6938;BME280;40040;42.706;23.372;2023-04-26T11:11:09;148214.22;;;16.40;68.37
6938;BME280;40040;42.706;23.372;2023-04-26T11:13:37;148216.66;;;16.41;66.57
6938;BME280;40040;42.706;23.372;2023-04-26T11:16:06;148283.66;;;16.68;68.11
6938;BME280;40040;42.706;23.372;2023-04-26T11:18:36;148291.09;;;16.71;66.72
6938;BME280;40040;42.706;23.372;2023-04-26T11:21:03;148345.63;;;16.93;66.85
6938;BME280;40040;42.706;23.372;2023-04-26T11:23:30;148422.53;;;17.24;66.70
6938;BME280;40040;42.706;23.372;2023-04-26T11:25:58;148447.31;;;17.34;63.04
6938;BME280;40040;42.706;23.372;2023-04-26T11:28:27;148464.69;;;17.41;63.92
6938;BME280;40040;42.706;23.372;2023-04-26T11:30:54;148571.38;;;17.84;63.67
6938;BME280;40040;42.706;23.372;2023-04-26T11:33:21;148625.94;;;18.07;61.82
6938;BME280;40040;42.706;23.372;2023-04-26T11:35:51;148633.44;;;18.10;62.58
6938;BME280;40040;42.706;23.372;2023-04-26T11:38:20;148649.53;;;18.16;61.25
6938;BME280;40040;42.706;23.372;2023-04-26T11:40:52;148563.94;;;17.81;64.39
6938;BME280;40040;42.706;23.372;2023-04-26T11:43:19;148586.25;;;17.90;64.43
6938;BME280;40040;42.706;23.372;2023-04-26T11:45:45;148602.41;;;17.97;62.88
6938;BME280;40040;42.706;23.372;2023-04-26T11:48:15;148673.09;;;18.26;60.86
6938;BME280;40040;42.706;23.372;2023-04-26T11:50:43;148735.22;;;18.51;61.05
6938;BME280;40040;42.706;23.372;2023-04-26T11:53:12;148810.91;;;18.81;61.88
6938;BME280;40040;42.706;23.372;2023-04-26T11:55:39;148794.78;;;18.75;57.86
6938;BME280;40040;42.706;23.372;2023-04-26T11:58:11;148757.56;;;18.60;58.57
6938;BME280;40040;42.706;23.372;2023-04-26T12:00:57;148706.63;;;18.39;58.58
6938;BME280;40040;42.706;23.372;2023-04-26T12:03:29;148627.22;;;18.07;59.76
6938;BME280;40040;42.706;23.372;2023-04-26T12:05:57;148577.56;;;17.87;60.60
6938;BME280;40040;42.706;23.372;2023-04-26T12:08:25;148580.06;;;17.88;61.23
6938;BME280;40040;42.706;23.372;2023-04-26T12:10:52;148546.59;;;17.74;61.70
6938;BME280;40040;42.706;23.372;2023-04-26T12:13:19;148552.75;;;17.77;61.47
6938;BME280;40040;42.706;23.372;2023-04-26T12:15:46;148536.66;;;17.70;61.42
6938;BME280;40040;42.706;23.372;2023-04-26T12:18:16;148561.44;;;17.80;62.03
6938;BME280;40040;42.706;23.372;2023-04-26T12:20:43;148484.53;;;17.49;61.20
6938;BME280;40040;42.706;23.372;2023-04-26T12:23:13;148407.63;;;17.18;60.43
6938;BME280;40040;42.706;23.372;2023-04-26T12:25:51;148464.69;;;17.41;61.05
6938;BME280;40040;42.706;23.372;2023-04-26T12:28:19;148434.91;;;17.29;60.87
6938;BME280;40040;42.706;23.372;2023-04-26T12:30:46;148449.78;;;17.35;59.93
6938;BME280;40040;42.706;23.372;2023-04-26T12:33:13;148395.22;;;17.13;60.50
6938;BME280;40040;42.706;23.372;2023-04-26T12:35:40;148403.91;;;17.17;61.45
6938;BME280;40040;42.706;23.372;2023-04-26T12:38:07;148365.47;;;17.01;60.44
6938;BME280;40040;42.706;23.372;2023-04-26T12:40:35;148361.78;;;17.00;61.48
6938;BME280;40040;42.706;23.372;2023-04-26T12:43:03;148276.19;;;16.65;62.75
6938;BME280;40040;42.706;23.372;2023-04-26T12:45:30;148263.81;;;16.60;63.29
6938;BME280;40040;42.706;23.372;2023-04-26T12:47:57;148216.66;;;16.41;64.31
6938;BME280;40040;42.706;23.372;2023-04-26T12:50:23;148195.59;;;16.32;63.24
6938;BME280;40040;42.706;23.372;2023-04-26T12:52:51;148138.59;;;16.09;64.50
6938;BME280;40040;42.706;23.372;2023-04-26T12:55:18;148080.41;;;15.86;64.21
6938;BME280;40040;42.706;23.372;2023-04-26T12:57:45;148055.63;;;15.75;64.64